Time;durP1;ratioP1;P1;durP2;ratioP2;P2;SDS_P1;SDS_P2;PMS_P1;PMS_P2;Temp;Humidity;BMP_temperature;BMP_pressure;BME280_temperature;BME280_humidity;BME280_pressure;Samples;Min_cycle;Max_cycle;Signal;HPM_P1;HPM_P2
2020/12/31 00:02:24;;;;;;;33.17;30.13;;;;;;;;;;5014766;28;20228;-83
2020/12/31 00:04:52;;;;;;;36.53;33.38;;;;;;;;;;5015968;28;20195;-83
2020/12/31 00:07:20;;;;;;;32.17;29.67;;;;;;;;;;5015208;28;20222;-83
2020/12/31 00:09:47;;;;;;;34.67;31.65;;;;;;;;;;4977751;28;20211;-82
2020/12/31 00:12:14;;;;;;;33.90;31.15;;;;;;;;;;4976831;28;20211;-83
2020/12/31 00:14:41;;;;;;;35.83;32.92;;;;;;;;;;4976924;28;20272;-83
2020/12/31 00:17:08;;;;;;;34.72;31.73;;;;;;;;;;4977000;28;20560;-83
2020/12/31 00:19:35;;;;;;;35.97;32.78;;;;;;;;;;4976746;28;20212;-83
2020/12/31 00:22:03;;;;;;;33.85;31.05;;;;;;;;;;4976907;28;20198;-83
2020/12/31 00:24:30;;;;;;;33.97;31.20;;;;;;;;;;4991769;28;20207;-82
2020/12/31 00:26:57;;;;;;;35.88;32.67;;;;;;;;;;4991904;28;20211;-83
2020/12/31 00:29:24;;;;;;;35.72;32.53;;;;;;;;;;4976425;28;20246;-83
2020/12/31 00:31:51;;;;;;;33.95;30.77;;;;;;;;;;4976900;28;20191;-83
2020/12/31 00:34:18;;;;;;;34.30;31.52;;;;;;;;;;4976461;28;20215;-83
2020/12/31 00:36:47;;;;;;;33.60;30.77;;;;;;;;;;4976154;28;20207;-83
2020/12/31 00:39:15;;;;;;;35.97;32.78;;;;;;;;;;4976695;28;20250;-83
2020/12/31 00:41:42;;;;;;;34.25;31.35;;;;;;;;;;4976692;28;20190;-83
2020/12/31 00:44:08;;;;;;;33.22;30.23;;;;;;;;;;4976313;28;20577;-83
2020/12/31 00:46:35;;;;;;;33.28;30.10;;;;;;;;;;4976181;28;20191;-83
2020/12/31 00:49:02;;;;;;;32.80;29.80;;;;;;;;;;4976512;28;20225;-83
2020/12/31 00:51:29;;;;;;;32.95;30.20;;;;;;;;;;4976396;28;20214;-83
2020/12/31 00:53:56;;;;;;;33.53;30.48;;;;;;;;;;4976198;28;20193;-83
2020/12/31 00:56:24;;;;;;;33.67;30.77;;;;;;;;;;4976220;28;20531;-83
2020/12/31 00:58:51;;;;;;;33.13;30.38;;;;;;;;;;4959480;28;20207;-83
2020/12/31 01:01:18;;;;;;;33.20;30.27;;;;;;;;;;4976155;28;20253;-83
2020/12/31 01:03:45;;;;;;;34.33;31.50;;;;;;;;;;4975030;28;20227;-83
2020/12/31 01:06:12;;;;;;;35.42;32.40;;;;;;;;;;4975797;28;20198;-83
2020/12/31 01:08:39;;;;;;;34.00;31.08;;;;;;;;;;4996403;28;20695;-83
2020/12/31 01:11:06;;;;;;;34.10;31.08;;;;;;;;;;5015177;28;20191;-83
2020/12/31 01:13:34;;;;;;;34.38;31.63;;;;;;;;;;5013922;28;20213;-83
2020/12/31 01:16:01;;;;;;;31.88;29.33;;;;;;;;;;5015083;28;20190;-83
2020/12/31 01:18:27;;;;;;;32.13;29.77;;;;;;;;;;5014725;28;20209;-83
2020/12/31 01:20:54;;;;;;;33.00;30.40;;;;;;;;;;5014930;28;20194;-83
2020/12/31 01:23:21;;;;;;;31.65;29.10;;;;;;;;;;5015161;28;20190;-83
2020/12/31 01:25:51;;;;;;;32.67;30.08;;;;;;;;;;5013871;28;20204;-84
2020/12/31 01:28:18;;;;;;;32.13;29.38;;;;;;;;;;5013868;28;20217;-83
2020/12/31 01:30:46;;;;;;;31.27;28.75;;;;;;;;;;5014568;28;20666;-83
2020/12/31 01:33:13;;;;;;;30.08;27.63;;;;;;;;;;5014394;28;20190;-83
2020/12/31 01:35:40;;;;;;;31.52;28.73;;;;;;;;;;5013650;28;20272;-83
2020/12/31 01:38:06;;;;;;;30.90;28.42;;;;;;;;;;5014365;28;20188;-84
2020/12/31 01:40:33;;;;;;;33.33;30.38;;;;;;;;;;5014852;28;20584;-83
2020/12/31 01:43:00;;;;;;;30.30;28.00;;;;;;;;;;5014730;28;20190;-83
2020/12/31 01:45:27;;;;;;;31.90;29.20;;;;;;;;;;5014570;28;20190;-83
2020/12/31 01:47:55;;;;;;;29.73;27.42;;;;;;;;;;5014892;28;20221;-83
2020/12/31 01:50:22;;;;;;;30.20;27.70;;;;;;;;;;5014482;28;20191;-83
2020/12/31 01:52:49;;;;;;;32.00;29.20;;;;;;;;;;5014742;28;20201;-82
2020/12/31 01:55:16;;;;;;;30.02;27.38;;;;;;;;;;5014796;28;20197;-83
2020/12/31 01:57:43;;;;;;;30.20;27.80;;;;;;;;;;5014471;28;20194;-83
2020/12/31 02:00:10;;;;;;;31.45;29.00;;;;;;;;;;5014421;28;20187;-83
2020/12/31 02:02:37;;;;;;;30.90;28.50;;;;;;;;;;5014518;28;20273;-83
2020/12/31 02:05:05;;;;;;;30.55;28.23;;;;;;;;;;5014727;28;20197;-83
2020/12/31 02:07:32;;;;;;;30.20;27.85;;;;;;;;;;5016119;28;20709;-83
2020/12/31 02:09:59;;;;;;;31.15;28.65;;;;;;;;;;5018477;28;20191;-82
2020/12/31 02:12:26;;;;;;;30.92;28.48;;;;;;;;;;5017527;28;20555;-83
2020/12/31 02:14:55;;;;;;;31.13;28.50;;;;;;;;;;5018206;28;20733;-82
2020/12/31 02:17:22;;;;;;;31.38;28.77;;;;;;;;;;5018546;28;20553;-83
2020/12/31 02:19:49;;;;;;;29.25;27.23;;;;;;;;;;5018523;28;20190;-83
2020/12/31 02:22:17;;;;;;;28.70;26.52;;;;;;;;;;5018020;28;20190;-82
2020/12/31 02:24:44;;;;;;;30.10;27.80;;;;;;;;;;5018417;28;20198;-82
2020/12/31 02:27:10;;;;;;;30.50;28.00;;;;;;;;;;5018307;28;20213;-83
2020/12/31 02:29:37;;;;;;;28.40;26.00;;;;;;;;;;5018441;28;20224;-83
2020/12/31 02:32:04;;;;;;;27.15;25.15;;;;;;;;;;5017743;28;20205;-82
2020/12/31 02:34:31;;;;;;;28.40;26.20;;;;;;;;;;5018429;28;20204;-82
2020/12/31 02:36:58;;;;;;;26.95;24.95;;;;;;;;;;5017068;28;20212;-83
2020/12/31 02:39:26;;;;;;;28.60;26.60;;;;;;;;;;5016966;28;20553;-83
2020/12/31 02:41:53;;;;;;;26.20;24.30;;;;;;;;;;5018276;28;20599;-83
2020/12/31 02:44:20;;;;;;;26.25;24.45;;;;;;;;;;5017717;28;20671;-83
2020/12/31 02:46:47;;;;;;;27.40;25.40;;;;;;;;;;5017489;28;20555;-82
2020/12/31 02:49:14;;;;;;;28.05;26.10;;;;;;;;;;5016525;28;20321;-82
2020/12/31 02:51:41;;;;;;;27.60;25.50;;;;;;;;;;5017965;28;20190;-83
2020/12/31 02:54:08;;;;;;;27.80;25.90;;;;;;;;;;5017690;28;20226;-82
2020/12/31 02:56:36;;;;;;;27.00;25.00;;;;;;;;;;5017826;28;20643;-82
2020/12/31 02:59:03;;;;;;;28.25;26.25;;;;;;;;;;5017836;28;20198;-82
2020/12/31 03:01:30;;;;;;;26.73;24.88;;;;;;;;;;5017565;28;20194;-83
2020/12/31 03:03:57;;;;;;;26.80;24.90;;;;;;;;;;5017440;28;20230;-83
2020/12/31 03:06:24;;;;;;;25.95;24.15;;;;;;;;;;5016403;28;20202;-82
2020/12/31 03:08:51;;;;;;;26.20;24.38;;;;;;;;;;5017359;28;20241;-83
2020/12/31 03:11:20;;;;;;;27.38;25.48;;;;;;;;;;5016412;28;20532;-82
2020/12/31 03:13:48;;;;;;;28.92;26.83;;;;;;;;;;5017059;28;20202;-82
2020/12/31 03:16:15;;;;;;;27.00;24.67;;;;;;;;;;5017246;28;20255;-83
2020/12/31 03:18:42;;;;;;;26.05;24.00;;;;;;;;;;5016556;28;20191;-83
2020/12/31 03:21:09;;;;;;;25.30;23.60;;;;;;;;;;5017258;28;20210;-83
2020/12/31 03:23:36;;;;;;;26.42;24.48;;;;;;;;;;5017421;28;20197;-83
2020/12/31 03:26:03;;;;;;;26.38;24.35;;;;;;;;;;5016115;28;20594;-83
2020/12/31 03:28:30;;;;;;;26.30;24.30;;;;;;;;;;5017197;28;20287;-83
2020/12/31 03:30:58;;;;;;;26.67;24.77;;;;;;;;;;5016861;28;20201;-83
2020/12/31 03:33:25;;;;;;;25.55;23.75;;;;;;;;;;5016571;28;20671;-82
2020/12/31 03:35:52;;;;;;;26.20;24.40;;;;;;;;;;5016793;28;20197;-83
2020/12/31 03:38:19;;;;;;;27.17;25.13;;;;;;;;;;5016820;28;20197;-83
2020/12/31 03:40:46;;;;;;;26.75;24.67;;;;;;;;;;5016958;28;20190;-83
2020/12/31 03:43:13;;;;;;;24.55;22.60;;;;;;;;;;5016950;28;20196;-83
2020/12/31 03:45:41;;;;;;;27.55;25.45;;;;;;;;;;5016752;28;20214;-83
2020/12/31 03:48:09;;;;;;;27.13;25.17;;;;;;;;;;5016579;28;20218;-83
2020/12/31 03:50:36;;;;;;;27.40;25.45;;;;;;;;;;5016892;28;20195;-83
2020/12/31 03:53:03;;;;;;;26.10;24.30;;;;;;;;;;5016803;28;20193;-83
2020/12/31 03:55:30;;;;;;;27.17;25.30;;;;;;;;;;5016607;28;20195;-83
2020/12/31 03:57:57;;;;;;;28.08;25.98;;;;;;;;;;5016372;28;20195;-83
2020/12/31 04:00:24;;;;;;;27.38;25.48;;;;;;;;;;5016681;28;20198;-83
2020/12/31 04:02:50;;;;;;;27.85;25.88;;;;;;;;;;5016413;28;20222;-82
2020/12/31 04:05:18;;;;;;;27.10;25.20;;;;;;;;;;5016472;28;20195;-82
2020/12/31 04:07:45;;;;;;;28.73;26.65;;;;;;;;;;5016204;28;20300;-83
2020/12/31 04:10:12;;;;;;;27.63;25.48;;;;;;;;;;5016530;28;20527;-83
2020/12/31 04:12:39;;;;;;;27.23;25.27;;;;;;;;;;5015372;28;20203;-82
2020/12/31 04:15:06;;;;;;;27.27;25.35;;;;;;;;;;5015990;28;20251;-83
2020/12/31 04:17:33;;;;;;;28.50;26.35;;;;;;;;;;5015986;28;20634;-82
2020/12/31 04:19:59;;;;;;;27.98;25.98;;;;;;;;;;5016369;28;20186;-83
2020/12/31 04:22:28;;;;;;;27.20;25.05;;;;;;;;;;5015033;28;20205;-83
2020/12/31 04:24:55;;;;;;;27.60;25.67;;;;;;;;;;5015962;28;20228;-82
2020/12/31 04:27:22;;;;;;;28.60;26.50;;;;;;;;;;5015695;28;20640;-82
2020/12/31 04:29:49;;;;;;;27.42;25.17;;;;;;;;;;5014790;28;20198;-83
2020/12/31 04:32:16;;;;;;;27.70;25.80;;;;;;;;;;5015889;28;20206;-82
2020/12/31 04:34:43;;;;;;;28.75;26.52;;;;;;;;;;5015884;28;20604;-82
2020/12/31 04:37:10;;;;;;;28.83;26.63;;;;;;;;;;5014851;28;20203;-82
2020/12/31 04:39:38;;;;;;;27.75;25.65;;;;;;;;;;5015751;28;20658;-83
2020/12/31 04:42:05;;;;;;;28.80;26.67;;;;;;;;;;5015857;28;20190;-83
2020/12/31 04:44:32;;;;;;;27.58;25.55;;;;;;;;;;5015665;28;20214;-82
2020/12/31 04:46:59;;;;;;;26.95;24.88;;;;;;;;;;5015890;28;20527;-83
2020/12/31 04:49:30;;;;;;;28.50;26.30;;;;;;;;;;5015366;28;20261;-83
2020/12/31 04:51:57;;;;;;;27.95;25.85;;;;;;;;;;5015603;28;20321;-83
2020/12/31 04:54:24;;;;;;;27.38;25.27;;;;;;;;;;5015632;28;20522;-83
2020/12/31 04:56:52;;;;;;;28.98;26.63;;;;;;;;;;5015408;28;20194;-83
2020/12/31 04:59:19;;;;;;;27.45;25.35;;;;;;;;;;5015455;28;20648;-83
2020/12/31 05:01:46;;;;;;;28.80;26.58;;;;;;;;;;5016126;28;20190;-82
2020/12/31 05:04:14;;;;;;;27.90;25.80;;;;;;;;;;5015371;28;20194;-82
2020/12/31 05:06:41;;;;;;;29.00;26.77;;;;;;;;;;5015099;28;20647;-83
2020/12/31 05:09:14;;;;;;;27.75;25.85;;;;;;;;;;5013947;28;20704;-82
2020/12/31 05:11:45;;;;;;;28.00;26.05;;;;;;;;;;5014925;28;20205;-83
2020/12/31 05:14:13;;;;;;;28.88;26.77;;;;;;;;;;5015063;28;20194;-83
2020/12/31 05:16:40;;;;;;;27.83;25.63;;;;;;;;;;5015427;28;20201;-83
2020/12/31 05:19:20;;;;;;;28.05;25.58;;;;;;;;;;5014860;28;20212;-83
2020/12/31 05:21:47;;;;;;;28.40;26.10;;;;;;;;;;5015451;28;20626;-82
2020/12/31 05:24:14;;;;;;;27.70;25.65;;;;;;;;;;5015127;28;20189;-83
2020/12/31 05:26:41;;;;;;;27.73;25.55;;;;;;;;;;5015114;28;20192;-83
2020/12/31 05:29:09;;;;;;;27.40;25.40;;;;;;;;;;5015135;28;20222;-83
2020/12/31 05:31:56;;;;;;;28.05;25.92;;;;;;;;;;5014824;28;20198;-83
2020/12/31 05:34:29;;;;;;;26.90;24.85;;;;;;;;;;5014793;28;20194;-83
2020/12/31 05:36:56;;;;;;;31.88;29.35;;;;;;;;;;5014388;28;20195;-82
2020/12/31 05:39:23;;;;;;;28.13;25.92;;;;;;;;;;5014891;28;20529;-83
2020/12/31 05:41:50;;;;;;;27.65;25.75;;;;;;;;;;5014297;28;20201;-82
2020/12/31 05:44:17;;;;;;;31.45;29.25;;;;;;;;;;5014792;28;20191;-83
2020/12/31 05:46:44;;;;;;;29.50;27.30;;;;;;;;;;5014994;28;20226;-83
2020/12/31 05:49:11;;;;;;;28.10;26.00;;;;;;;;;;5014244;28;20235;-83
2020/12/31 05:51:39;;;;;;;28.75;26.65;;;;;;;;;;5014392;28;20193;-83
2020/12/31 05:54:07;;;;;;;31.20;28.90;;;;;;;;;;5014698;28;20186;-83
2020/12/31 05:56:34;;;;;;;29.40;26.85;;;;;;;;;;5014625;28;20223;-83
2020/12/31 05:59:22;;;;;;;28.30;26.00;;;;;;;;;;5014405;28;20236;-82
2020/12/31 06:01:55;;;;;;;28.05;26.00;;;;;;;;;;5013113;28;20820;-82
2020/12/31 06:04:43;;;;;;;28.33;26.23;;;;;;;;;;5014186;28;20186;-83
2020/12/31 06:07:17;;;;;;;30.60;28.15;;;;;;;;;;5014893;28;20201;-82
2020/12/31 06:09:47;;;;;;;30.70;28.40;;;;;;;;;;5014191;28;20580;-82
2020/12/31 06:12:19;;;;;;;29.23;27.13;;;;;;;;;;5013499;28;20205;-83
2020/12/31 06:14:48;;;;;;;29.63;27.42;;;;;;;;;;5014528;28;20198;-82
2020/12/31 06:17:20;;;;;;;29.27;26.98;;;;;;;;;;5013396;28;20538;-82
2020/12/31 06:19:53;;;;;;;30.05;27.55;;;;;;;;;;5014028;28;20648;-81
2020/12/31 06:22:26;;;;;;;27.92;25.80;;;;;;;;;;5012991;28;20632;-81
2020/12/31 06:24:58;;;;;;;26.90;25.00;;;;;;;;;;5014419;28;20550;-81
2020/12/31 06:27:33;;;;;;;27.90;25.70;;;;;;;;;;5014311;28;20210;-82
2020/12/31 06:30:00;;;;;;;27.65;25.50;;;;;;;;;;5014179;28;20289;-81
2020/12/31 06:32:28;;;;;;;26.40;24.52;;;;;;;;;;5013947;28;20193;-82
2020/12/31 06:35:04;;;;;;;27.73;25.52;;;;;;;;;;5013978;28;20650;-80
2020/12/31 06:37:31;;;;;;;27.58;25.30;;;;;;;;;;5011020;28;20193;-81
2020/12/31 06:40:17;;;;;;;27.83;25.83;;;;;;;;;;5012586;28;20568;-81
2020/12/31 06:43:17;;;;;;;29.70;27.38;;;;;;;;;;5013483;28;20583;-82
2020/12/31 06:45:44;;;;;;;27.23;25.25;;;;;;;;;;4953420;29;20192;-82
2020/12/31 06:48:30;;;;;;;28.05;25.90;;;;;;;;;;4937333;29;20235;-81
2020/12/31 06:50:58;;;;;;;28.00;25.90;;;;;;;;;;4937174;29;20208;-81
2020/12/31 06:53:28;;;;;;;27.63;25.48;;;;;;;;;;4954747;28;20196;-81
2020/12/31 06:55:55;;;;;;;27.77;25.67;;;;;;;;;;4941209;29;20210;-82
2020/12/31 06:58:22;;;;;;;28.60;26.35;;;;;;;;;;4957255;29;20671;-82
2020/12/31 07:00:49;;;;;;;28.42;26.10;;;;;;;;;;4957122;29;20204;-81
2020/12/31 07:03:16;;;;;;;27.20;25.20;;;;;;;;;;4956325;29;20238;-81
2020/12/31 07:05:43;;;;;;;27.75;25.63;;;;;;;;;;4956961;29;20192;-81
2020/12/31 07:08:11;;;;;;;27.85;25.75;;;;;;;;;;4940317;29;20243;-81
2020/12/31 07:10:47;;;;;;;27.55;25.50;;;;;;;;;;4956665;29;20212;-81
2020/12/31 07:13:30;;;;;;;28.25;26.13;;;;;;;;;;4956569;29;20239;-82
2020/12/31 07:15:57;;;;;;;28.95;26.65;;;;;;;;;;4956879;28;20252;-82
2020/12/31 07:18:24;;;;;;;27.60;25.52;;;;;;;;;;5016901;28;20677;-82
2020/12/31 07:20:51;;;;;;;26.23;24.42;;;;;;;;;;5015618;28;20640;-82
2020/12/31 07:23:19;;;;;;;28.85;26.60;;;;;;;;;;5016670;28;20192;-82
2020/12/31 07:25:45;;;;;;;29.77;27.20;;;;;;;;;;5016739;28;20286;-82
2020/12/31 07:28:18;;;;;;;28.35;26.20;;;;;;;;;;5016555;28;20222;-82
2020/12/31 07:30:53;;;;;;;27.35;25.33;;;;;;;;;;5016519;28;20575;-82
2020/12/31 07:33:34;;;;;;;28.00;25.85;;;;;;;;;;5016120;28;20210;-83
2020/12/31 07:36:12;;;;;;;27.50;25.50;;;;;;;;;;5016516;28;20297;-82
2020/12/31 07:38:40;;;;;;;27.85;25.75;;;;;;;;;;5016442;28;20229;-81
2020/12/31 07:41:11;;;;;;;28.10;25.95;;;;;;;;;;5016874;28;20191;-83
2020/12/31 07:43:39;;;;;;;27.85;25.65;;;;;;;;;;5016379;28;20317;-81
2020/12/31 07:46:06;;;;;;;27.40;25.17;;;;;;;;;;5016378;28;20206;-82
2020/12/31 07:48:33;;;;;;;28.65;26.42;;;;;;;;;;5016391;28;20219;-82
2020/12/31 07:51:01;;;;;;;28.02;25.85;;;;;;;;;;5016594;28;20264;-82
2020/12/31 07:53:29;;;;;;;26.60;24.70;;;;;;;;;;5016217;28;20195;-82
2020/12/31 07:55:57;;;;;;;27.35;25.35;;;;;;;;;;5016264;28;20209;-82
2020/12/31 07:58:25;;;;;;;27.27;25.27;;;;;;;;;;5016040;28;20193;-82
2020/12/31 08:01:00;;;;;;;26.88;24.98;;;;;;;;;;5016352;28;20618;-82
2020/12/31 08:03:27;;;;;;;26.95;25.05;;;;;;;;;;5015888;28;20232;-82
2020/12/31 08:05:57;;;;;;;27.40;25.30;;;;;;;;;;5015096;28;20205;-80
2020/12/31 08:08:24;;;;;;;27.08;25.20;;;;;;;;;;5015710;28;20633;-81
2020/12/31 08:10:51;;;;;;;27.40;25.52;;;;;;;;;;5016374;28;20191;-83
2020/12/31 08:13:19;;;;;;;25.30;23.60;;;;;;;;;;5014775;28;20275;-83
2020/12/31 08:15:50;;;;;;;26.80;24.58;;;;;;;;;;5015931;28;20553;-77
2020/12/31 08:18:17;;;;;;;25.42;23.63;;;;;;;;;;5015421;28;20237;-77
2020/12/31 08:20:45;;;;;;;26.48;24.48;;;;;;;;;;5015443;28;20195;-77
2020/12/31 08:23:14;;;;;;;25.50;23.50;;;;;;;;;;5016162;28;20648;-82
2020/12/31 08:25:42;;;;;;;24.45;22.75;;;;;;;;;;5015747;28;20196;-81
2020/12/31 08:28:09;;;;;;;26.15;24.25;;;;;;;;;;5015036;28;20235;-77
2020/12/31 08:30:38;;;;;;;24.35;22.75;;;;;;;;;;5015153;28;20190;-77
2020/12/31 08:33:05;;;;;;;24.60;22.70;;;;;;;;;;5013555;28;20220;-78
2020/12/31 08:35:33;;;;;;;24.60;22.95;;;;;;;;;;5015065;28;20186;-77
2020/12/31 08:38:01;;;;;;;24.30;22.60;;;;;;;;;;5014028;28;20687;-77
2020/12/31 08:40:30;;;;;;;24.17;22.55;;;;;;;;;;5015190;28;20209;-77
2020/12/31 08:42:57;;;;;;;25.48;23.50;;;;;;;;;;5015475;28;20268;-77
2020/12/31 08:45:27;;;;;;;23.98;22.45;;;;;;;;;;5014853;28;20636;-78
2020/12/31 08:48:07;;;;;;;25.05;23.35;;;;;;;;;;5014793;28;20260;-76
2020/12/31 08:50:34;;;;;;;24.98;23.05;;;;;;;;;;5015134;28;20200;-78
2020/12/31 08:53:02;;;;;;;24.95;23.20;;;;;;;;;;5014933;28;20261;-77
2020/12/31 08:55:29;;;;;;;25.15;23.45;;;;;;;;;;5014897;28;20194;-76
2020/12/31 08:58:11;;;;;;;25.10;23.20;;;;;;;;;;5014420;28;20651;-77
2020/12/31 09:00:38;;;;;;;24.45;22.75;;;;;;;;;;5014483;28;20201;-78
2020/12/31 09:03:07;;;;;;;23.70;22.10;;;;;;;;;;5013783;28;20225;-77
2020/12/31 09:05:33;;;;;;;25.52;23.83;;;;;;;;;;5014593;28;20679;-78
2020/12/31 09:08:05;;;;;;;25.77;24.02;;;;;;;;;;5014416;28;20300;-79
2020/12/31 09:10:32;;;;;;;26.25;24.45;;;;;;;;;;5014073;28;20616;-77
2020/12/31 09:12:59;;;;;;;26.33;24.52;;;;;;;;;;5014292;28;20617;-78
2020/12/31 09:15:26;;;;;;;25.00;23.38;;;;;;;;;;5012574;28;20195;-78
2020/12/31 09:17:53;;;;;;;24.48;22.88;;;;;;;;;;5014587;28;20194;-79
2020/12/31 09:20:22;;;;;;;24.50;22.70;;;;;;;;;;5014524;28;20186;-78
2020/12/31 09:22:49;;;;;;;25.67;23.90;;;;;;;;;;5012783;28;20541;-78
2020/12/31 09:25:17;;;;;;;25.05;23.35;;;;;;;;;;4996817;28;20656;-77
2020/12/31 09:27:46;;;;;;;25.67;23.60;;;;;;;;;;5014327;28;20202;-77
2020/12/31 09:30:14;;;;;;;27.10;25.15;;;;;;;;;;5014144;28;20217;-77
2020/12/31 09:32:45;;;;;;;26.02;24.20;;;;;;;;;;5014000;28;20644;-78
2020/12/31 09:35:12;;;;;;;25.10;23.50;;;;;;;;;;5014523;28;20206;-83
2020/12/31 09:37:47;;;;;;;25.35;23.58;;;;;;;;;;5012218;28;20236;-83
2020/12/31 09:40:15;;;;;;;27.15;25.15;;;;;;;;;;5014814;28;20190;-78
2020/12/31 09:42:42;;;;;;;25.48;23.60;;;;;;;;;;5013895;28;20217;-77
2020/12/31 09:45:09;;;;;;;26.20;24.33;;;;;;;;;;5013707;28;20205;-77
2020/12/31 09:47:36;;;;;;;26.95;25.15;;;;;;;;;;5013638;28;20205;-76
2020/12/31 09:50:03;;;;;;;26.38;24.65;;;;;;;;;;5013596;28;20308;-76
2020/12/31 09:52:32;;;;;;;26.45;24.60;;;;;;;;;;5013924;28;20187;-77
2020/12/31 09:55:00;;;;;;;27.85;25.95;;;;;;;;;;5014077;28;20272;-77
2020/12/31 09:57:27;;;;;;;27.30;25.45;;;;;;;;;;5014022;28;20198;-76
2020/12/31 09:59:54;;;;;;;27.77;25.80;;;;;;;;;;5014504;28;20570;-77
2020/12/31 10:02:21;;;;;;;26.65;24.90;;;;;;;;;;5013263;28;20230;-77
2020/12/31 10:04:48;;;;;;;27.40;25.50;;;;;;;;;;5013786;28;20211;-77
2020/12/31 10:07:15;;;;;;;28.08;25.90;;;;;;;;;;5013502;28;20560;-77
2020/12/31 10:09:42;;;;;;;27.75;25.50;;;;;;;;;;5012597;28;20611;-77
2020/12/31 10:12:12;;;;;;;28.55;26.30;;;;;;;;;;5011050;28;20205;-79
2020/12/31 10:14:39;;;;;;;28.08;26.08;;;;;;;;;;5014015;28;20190;-79
2020/12/31 10:17:06;;;;;;;28.50;26.40;;;;;;;;;;5013992;28;20201;-79
2020/12/31 10:19:32;;;;;;;28.45;26.25;;;;;;;;;;5013551;28;20195;-80
2020/12/31 10:21:59;;;;;;;28.30;26.30;;;;;;;;;;5013682;28;20190;-80
2020/12/31 10:24:26;;;;;;;29.13;26.88;;;;;;;;;;5012380;28;20242;-78
2020/12/31 10:26:53;;;;;;;28.15;26.33;;;;;;;;;;5013241;28;20655;-78
2020/12/31 10:29:21;;;;;;;30.95;28.65;;;;;;;;;;5016891;28;20218;-81
2020/12/31 10:31:51;;;;;;;30.48;28.20;;;;;;;;;;5016356;28;20276;-77
2020/12/31 10:34:19;;;;;;;29.88;27.75;;;;;;;;;;5017359;28;20248;-78
2020/12/31 10:36:50;;;;;;;29.80;27.60;;;;;;;;;;5017597;28;20197;-77
2020/12/31 10:39:17;;;;;;;30.35;28.05;;;;;;;;;;5017499;28;20244;-77
2020/12/31 10:41:44;;;;;;;29.95;27.50;;;;;;;;;;5016927;28;20198;-77
2020/12/31 10:44:11;;;;;;;29.95;27.75;;;;;;;;;;5016964;28;20249;-78
2020/12/31 10:46:39;;;;;;;29.55;27.35;;;;;;;;;;5016953;28;20190;-78
2020/12/31 10:49:06;;;;;;;28.95;26.73;;;;;;;;;;5017136;28;20226;-75
2020/12/31 10:51:34;;;;;;;28.95;26.70;;;;;;;;;;5016904;28;20266;-78
2020/12/31 10:54:00;;;;;;;27.73;25.73;;;;;;;;;;5016995;28;20548;-78
2020/12/31 10:56:27;;;;;;;29.58;27.40;;;;;;;;;;5017301;28;20189;-78
2020/12/31 10:58:54;;;;;;;28.65;26.65;;;;;;;;;;5017108;28;20195;-78
2020/12/31 11:01:21;;;;;;;29.88;27.63;;;;;;;;;;5017113;28;20564;-78
2020/12/31 11:03:49;;;;;;;28.17;26.17;;;;;;;;;;5016968;28;20202;-78
2020/12/31 11:06:20;;;;;;;28.85;26.88;;;;;;;;;;5016472;28;20202;-78
2020/12/31 11:08:46;;;;;;;28.63;26.40;;;;;;;;;;5016110;28;20273;-77
2020/12/31 11:11:17;;;;;;;26.60;24.83;;;;;;;;;;5016507;28;20196;-77
2020/12/31 11:13:44;;;;;;;28.38;26.38;;;;;;;;;;5014787;28;20281;-77
2020/12/31 11:16:11;;;;;;;26.52;24.52;;;;;;;;;;5016404;28;20191;-77
2020/12/31 11:18:39;;;;;;;28.73;26.70;;;;;;;;;;5016408;28;20202;-77
2020/12/31 11:21:07;;;;;;;27.73;25.85;;;;;;;;;;5015129;28;20191;-77
2020/12/31 11:23:34;;;;;;;27.33;25.23;;;;;;;;;;5016674;28;20202;-77
2020/12/31 11:26:01;;;;;;;28.30;26.40;;;;;;;;;;5016397;28;20202;-78
2020/12/31 11:28:29;;;;;;;26.92;25.00;;;;;;;;;;5015644;28;20322;-76
2020/12/31 11:30:55;;;;;;;27.65;25.85;;;;;;;;;;5016204;28;20199;-78
2020/12/31 11:33:22;;;;;;;29.65;27.52;;;;;;;;;;5016445;28;20195;-78
2020/12/31 11:35:49;;;;;;;28.67;26.65;;;;;;;;;;5016634;28;20192;-78
2020/12/31 11:38:17;;;;;;;30.90;28.80;;;;;;;;;;5016196;28;20194;-77
2020/12/31 11:40:44;;;;;;;25.35;23.65;;;;;;;;;;5016896;28;20214;-77
2020/12/31 11:43:11;;;;;;;27.00;25.00;;;;;;;;;;5016238;28;20195;-76
2020/12/31 11:45:38;;;;;;;26.48;24.58;;;;;;;;;;5016329;28;20334;-77
2020/12/31 11:48:05;;;;;;;25.80;24.10;;;;;;;;;;5015783;28;20202;-77
2020/12/31 11:50:32;;;;;;;25.67;23.95;;;;;;;;;;5016189;28;20637;-77
2020/12/31 11:52:59;;;;;;;26.00;24.20;;;;;;;;;;5015937;28;20660;-77
2020/12/31 11:55:27;;;;;;;26.67;24.73;;;;;;;;;;5016151;28;20203;-77
2020/12/31 11:57:54;;;;;;;25.02;23.42;;;;;;;;;;5015779;28;20193;-77
2020/12/31 12:00:21;;;;;;;25.50;23.70;;;;;;;;;;5014425;28;20195;-77
2020/12/31 12:02:48;;;;;;;25.48;23.75;;;;;;;;;;5015450;28;20190;-77
2020/12/31 12:05:15;;;;;;;24.10;22.52;;;;;;;;;;5015517;28;20194;-78
2020/12/31 12:07:42;;;;;;;25.23;23.42;;;;;;;;;;5015823;28;20287;-77
2020/12/31 12:10:09;;;;;;;25.40;23.70;;;;;;;;;;5015906;28;20300;-77
2020/12/31 12:12:37;;;;;;;25.58;23.88;;;;;;;;;;5015336;28;20191;-78
2020/12/31 12:15:05;;;;;;;25.40;23.70;;;;;;;;;;5015637;28;20209;-78
2020/12/31 12:17:32;;;;;;;24.92;23.33;;;;;;;;;;5014238;28;20233;-77
2020/12/31 12:19:59;;;;;;;25.05;23.17;;;;;;;;;;5015826;28;20252;-77
2020/12/31 12:22:25;;;;;;;25.85;24.05;;;;;;;;;;5015488;28;20196;-78
2020/12/31 12:24:52;;;;;;;26.13;24.35;;;;;;;;;;5015513;28;20656;-77
2020/12/31 12:27:19;;;;;;;24.40;22.75;;;;;;;;;;5015295;28;20711;-78
2020/12/31 12:29:47;;;;;;;25.05;23.40;;;;;;;;;;5014327;28;20243;-78
2020/12/31 12:32:14;;;;;;;25.23;23.63;;;;;;;;;;5000828;28;20225;-78
2020/12/31 12:34:41;;;;;;;26.80;25.10;;;;;;;;;;4995790;28;20199;-78
2020/12/31 12:37:08;;;;;;;24.58;22.92;;;;;;;;;;4995867;28;20641;-83
2020/12/31 12:39:35;;;;;;;23.88;22.38;;;;;;;;;;4995989;28;20546;-84
2020/12/31 12:42:02;;;;;;;23.98;22.45;;;;;;;;;;4996365;28;20226;-84
2020/12/31 12:44:28;;;;;;;22.92;21.55;;;;;;;;;;4996410;28;20638;-83
2020/12/31 12:46:56;;;;;;;25.30;23.70;;;;;;;;;;4996341;28;20203;-82
2020/12/31 12:49:23;;;;;;;25.02;23.42;;;;;;;;;;4995833;28;20222;-84
2020/12/31 12:51:50;;;;;;;24.52;22.98;;;;;;;;;;4994350;28;20207;-83
2020/12/31 12:54:17;;;;;;;25.45;23.63;;;;;;;;;;4996156;28;20275;-83
2020/12/31 12:56:44;;;;;;;24.85;23.05;;;;;;;;;;4995950;28;20202;-84
2020/12/31 12:59:11;;;;;;;24.92;23.13;;;;;;;;;;4995930;28;20194;-84
2020/12/31 13:01:40;;;;;;;24.25;22.70;;;;;;;;;;4995635;28;20227;-84
2020/12/31 13:04:07;;;;;;;25.65;23.90;;;;;;;;;;4996100;28;20196;-84
2020/12/31 13:06:34;;;;;;;24.90;23.40;;;;;;;;;;4994683;28;20207;-84
2020/12/31 13:09:02;;;;;;;24.60;23.00;;;;;;;;;;4995218;28;20238;-84
2020/12/31 13:11:28;;;;;;;24.67;23.08;;;;;;;;;;4995669;28;20286;-84
2020/12/31 13:13:55;;;;;;;25.60;23.90;;;;;;;;;;4995451;28;20242;-83
2020/12/31 13:16:22;;;;;;;23.58;22.17;;;;;;;;;;4996089;28;20574;-82
2020/12/31 13:18:49;;;;;;;22.88;21.48;;;;;;;;;;4995703;28;20196;-85
2020/12/31 13:21:20;;;;;;;23.10;21.80;;;;;;;;;;4995680;28;20203;-85
2020/12/31 13:23:46;;;;;;;23.95;22.55;;;;;;;;;;4995342;28;20192;-81
2020/12/31 13:26:13;;;;;;;23.55;22.25;;;;;;;;;;4993845;28;20195;-81
2020/12/31 13:28:40;;;;;;;23.63;22.23;;;;;;;;;;4993499;28;20595;-77
2020/12/31 13:31:07;;;;;;;22.55;21.15;;;;;;;;;;4995505;28;20192;-76
2020/12/31 13:33:34;;;;;;;23.00;21.45;;;;;;;;;;4992824;28;20232;-78
2020/12/31 13:36:01;;;;;;;23.20;21.85;;;;;;;;;;4994608;28;20222;-77
2020/12/31 13:38:29;;;;;;;23.52;22.10;;;;;;;;;;4994465;28;20191;-77
2020/12/31 13:40:56;;;;;;;23.15;21.75;;;;;;;;;;4993378;28;20195;-76
2020/12/31 13:43:23;;;;;;;23.98;22.58;;;;;;;;;;4994371;28;20203;-77
2020/12/31 13:45:50;;;;;;;22.88;21.35;;;;;;;;;;4994519;28;20192;-77
2020/12/31 13:48:17;;;;;;;22.73;21.33;;;;;;;;;;4994415;28;20203;-77
2020/12/31 13:50:44;;;;;;;22.77;21.48;;;;;;;;;;4994606;28;20190;-77
2020/12/31 13:53:11;;;;;;;23.02;21.73;;;;;;;;;;4994475;28;20187;-77
2020/12/31 13:55:39;;;;;;;22.55;21.25;;;;;;;;;;4994350;28;20196;-77
2020/12/31 13:58:06;;;;;;;24.23;22.80;;;;;;;;;;4994269;28;20198;-76
2020/12/31 14:00:33;;;;;;;24.00;22.50;;;;;;;;;;4994100;28;20234;-77
2020/12/31 14:03:01;;;;;;;23.67;22.15;;;;;;;;;;4999181;28;20218;-77
2020/12/31 14:05:27;;;;;;;23.02;21.63;;;;;;;;;;5000953;28;20186;-77
2020/12/31 14:07:54;;;;;;;22.35;20.95;;;;;;;;;;5000373;28;20227;-77
2020/12/31 14:10:21;;;;;;;22.05;20.75;;;;;;;;;;4999717;28;20215;-76
2020/12/31 14:12:49;;;;;;;22.50;21.20;;;;;;;;;;5000084;28;20195;-77
2020/12/31 14:15:16;;;;;;;22.52;21.33;;;;;;;;;;5000315;28;20219;-78
2020/12/31 14:17:43;;;;;;;22.02;20.60;;;;;;;;;;5000211;28;20202;-77
2020/12/31 14:20:10;;;;;;;21.88;20.60;;;;;;;;;;5000357;28;20195;-77
2020/12/31 14:22:38;;;;;;;22.30;21.00;;;;;;;;;;5000432;28;20191;-77